Time;durP1;ratioP1;P1;durP2;ratioP2;P2;SDS_P1;SDS_P2;PMS_P1;PMS_P2;Temp;Humidity;BMP_temperature;BMP_pressure;BME280_temperature;BME280_humidity;BME280_pressure;Samples;Min_cycle;Max_cycle;Signal;HPM_P1;HPM_P2
2023/12/25 00:00:34;;;;;;;3.72;1.58;;;;;;;;;;7372785;19;20014;-75
2023/12/25 00:02:59;;;;;;;6.90;1.83;;;;;;;;;;7363947;19;20027;-74
2023/12/25 00:05:24;;;;;;;4.25;1.85;;;;;;;;;;7382496;19;20031;-74
2023/12/25 00:07:49;;;;;;;5.05;1.63;;;;;;;;;;7359272;19;20010;-74
2023/12/25 00:10:15;;;;;;;5.05;1.95;;;;;;;;;;7360838;19;20027;-75
2023/12/25 00:12:41;;;;;;;5.00;1.75;;;;;;;;;;7360755;19;20014;-76
2023/12/25 00:15:06;;;;;;;7.20;1.83;;;;;;;;;;7363353;19;20009;-76
2023/12/25 00:17:32;;;;;;;5.65;1.80;;;;;;;;;;7386706;19;20011;-75
2023/12/25 00:19:57;;;;;;;8.75;2.03;;;;;;;;;;7365396;19;20010;-76
2023/12/25 00:22:22;;;;;;;4.38;1.73;;;;;;;;;;7366827;19;20012;-75
2023/12/25 00:24:47;;;;;;;6.15;2.22;;;;;;;;;;7363329;19;20007;-74
2023/12/25 00:27:13;;;;;;;9.13;2.53;;;;;;;;;;7362056;19;20019;-74
2023/12/25 00:29:38;;;;;;;5.13;1.67;;;;;;;;;;7387935;19;20006;-75
2023/12/25 00:32:04;;;;;;;8.23;2.70;;;;;;;;;;7366362;19;20406;-76
2023/12/25 00:34:29;;;;;;;9.13;2.13;;;;;;;;;;7369500;19;19998;-76
2023/12/25 00:36:55;;;;;;;4.05;1.67;;;;;;;;;;7377069;19;20019;-76
2023/12/25 00:39:20;;;;;;;7.85;2.08;;;;;;;;;;7376873;19;20018;-77
2023/12/25 00:41:46;;;;;;;6.53;2.08;;;;;;;;;;7396288;19;20007;-76
2023/12/25 00:44:11;;;;;;;5.20;1.95;;;;;;;;;;7375352;19;20086;-77
2023/12/25 00:46:36;;;;;;;4.97;1.70;;;;;;;;;;7374824;19;20388;-76
2023/12/25 00:49:02;;;;;;;7.70;2.45;;;;;;;;;;7378797;19;20009;-78
2023/12/25 00:51:27;;;;;;;8.15;2.45;;;;;;;;;;7376852;19;20512;-76
2023/12/25 00:53:53;;;;;;;5.28;1.83;;;;;;;;;;7375544;19;20472;-77
2023/12/25 00:56:18;;;;;;;5.70;1.90;;;;;;;;;;7396578;19;19994;-76
2023/12/25 00:58:44;;;;;;;7.72;2.13;;;;;;;;;;7375165;19;20501;-77
2023/12/25 01:01:09;;;;;;;9.80;2.00;;;;;;;;;;7375676;19;20017;-77
2023/12/25 01:03:35;;;;;;;9.82;2.15;;;;;;;;;;7374828;19;20003;-77
2023/12/25 01:06:00;;;;;;;8.68;2.30;;;;;;;;;;7380220;19;20007;-76
2023/12/25 01:08:25;;;;;;;6.65;2.10;;;;;;;;;;7396837;19;20017;-76
2023/12/25 01:10:51;;;;;;;5.43;2.00;;;;;;;;;;7376188;19;20416;-77
2023/12/25 01:13:16;;;;;;;8.13;2.05;;;;;;;;;;7373593;19;20044;-76
2023/12/25 01:15:41;;;;;;;8.70;1.80;;;;;;;;;;7373532;19;20040;-76
2023/12/25 01:18:07;;;;;;;6.78;2.17;;;;;;;;;;7373609;19;20010;-76
2023/12/25 01:20:32;;;;;;;10.82;2.20;;;;;;;;;;7394811;19;20041;-77
2023/12/25 01:22:57;;;;;;;8.32;1.98;;;;;;;;;;7372343;19;20017;-77
2023/12/25 01:25:23;;;;;;;4.20;1.90;;;;;;;;;;7372052;19;20040;-77
2023/12/25 01:27:48;;;;;;;6.85;2.88;;;;;;;;;;7369709;19;20025;-77
2023/12/25 01:30:13;;;;;;;6.53;1.98;;;;;;;;;;7371928;19;20044;-77
2023/12/25 01:32:39;;;;;;;11.13;2.20;;;;;;;;;;7394378;19;20017;-75
2023/12/25 01:35:05;;;;;;;6.95;2.13;;;;;;;;;;7373533;19;20010;-78
2023/12/25 01:37:30;;;;;;;6.47;1.83;;;;;;;;;;7371756;19;20028;-75
2023/12/25 01:39:56;;;;;;;3.47;1.50;;;;;;;;;;7372115;19;20481;-75
2023/12/25 01:42:21;;;;;;;7.80;2.35;;;;;;;;;;7371431;19;20010;-75
2023/12/25 01:44:47;;;;;;;7.30;1.98;;;;;;;;;;7394753;19;20032;-75
2023/12/25 01:47:14;;;;;;;7.15;1.85;;;;;;;;;;7371360;19;20034;-75
2023/12/25 01:49:40;;;;;;;5.57;1.70;;;;;;;;;;7370621;19;20011;-75
2023/12/25 01:52:05;;;;;;;6.18;1.90;;;;;;;;;;7372201;19;20006;-75
2023/12/25 01:54:32;;;;;;;4.80;1.77;;;;;;;;;;7370212;19;20031;-76
2023/12/25 01:56:58;;;;;;;6.15;2.25;;;;;;;;;;7372013;19;20003;-76
2023/12/25 01:59:28;;;;;;;7.03;1.83;;;;;;;;;;7394789;19;20461;-76
2023/12/25 02:01:53;;;;;;;8.48;1.77;;;;;;;;;;7373017;19;20025;-76
2023/12/25 02:04:18;;;;;;;6.13;1.80;;;;;;;;;;7374000;19;20062;-76
2023/12/25 02:06:44;;;;;;;6.57;1.98;;;;;;;;;;7384332;19;20536;-76
2023/12/25 02:09:09;;;;;;;5.97;1.77;;;;;;;;;;7375768;19;20000;-76
2023/12/25 02:11:40;;;;;;;6.03;1.90;;;;;;;;;;7395337;19;20428;-76
2023/12/25 02:14:05;;;;;;;7.03;2.03;;;;;;;;;;7372193;19;20011;-76
2023/12/25 02:16:30;;;;;;;7.10;1.88;;;;;;;;;;7371557;19;20017;-76
2023/12/25 02:18:56;;;;;;;8.27;2.28;;;;;;;;;;7369774;19;20006;-76
2023/12/25 02:21:21;;;;;;;4.00;1.80;;;;;;;;;;7373407;19;20074;-76
2023/12/25 02:23:52;;;;;;;9.05;2.00;;;;;;;;;;7391882;19;20010;-75
2023/12/25 02:26:18;;;;;;;7.05;2.00;;;;;;;;;;7373732;19;20002;-76
2023/12/25 02:28:43;;;;;;;6.82;2.05;;;;;;;;;;7372225;19;20090;-75
2023/12/25 02:31:09;;;;;;;4.88;1.83;;;;;;;;;;7374406;19;20017;-76
2023/12/25 02:33:34;;;;;;;7.22;2.22;;;;;;;;;;7371819;19;20010;-76
2023/12/25 02:35:59;;;;;;;5.90;1.83;;;;;;;;;;7375243;19;20014;-76
2023/12/25 02:38:25;;;;;;;5.93;1.95;;;;;;;;;;7404421;19;20015;-76
2023/12/25 02:40:50;;;;;;;6.15;2.03;;;;;;;;;;7384671;19;20009;-75
2023/12/25 02:43:15;;;;;;;9.18;2.10;;;;;;;;;;7383462;19;20015;-76
2023/12/25 02:45:41;;;;;;;4.20;1.67;;;;;;;;;;7377667;19;20053;-76
2023/12/25 02:48:06;;;;;;;5.13;1.65;;;;;;;;;;7371572;19;20830;-75
2023/12/25 02:50:32;;;;;;;6.22;1.92;;;;;;;;;;7390318;19;20496;-76
2023/12/25 02:52:57;;;;;;;10.25;2.50;;;;;;;;;;7366574;19;20016;-75
2023/12/25 02:55:22;;;;;;;6.47;2.10;;;;;;;;;;7366447;19;20539;-75
2023/12/25 02:57:48;;;;;;;8.38;2.10;;;;;;;;;;7364325;19;20406;-75
2023/12/25 03:00:14;;;;;;;5.07;2.10;;;;;;;;;;7369197;19;20484;-75
2023/12/25 03:02:39;;;;;;;6.93;2.08;;;;;;;;;;7389901;19;20114;-75
2023/12/25 03:05:05;;;;;;;6.85;2.10;;;;;;;;;;7370312;19;20041;-75
2023/12/25 03:07:30;;;;;;;8.85;2.08;;;;;;;;;;7371247;19;20058;-75
2023/12/25 03:09:55;;;;;;;7.60;2.00;;;;;;;;;;7371934;19;20010;-75
2023/12/25 03:12:20;;;;;;;4.20;2.33;;;;;;;;;;7370278;19;20011;-75
2023/12/25 03:14:47;;;;;;;8.20;1.95;;;;;;;;;;7392056;19;20066;-75
2023/12/25 03:17:12;;;;;;;4.78;2.10;;;;;;;;;;7367943;19;20007;-75
2023/12/25 03:19:38;;;;;;;7.35;2.30;;;;;;;;;;7369954;19;20017;-75
2023/12/25 03:22:03;;;;;;;7.43;2.08;;;;;;;;;;7371017;19;20083;-75
2023/12/25 03:24:28;;;;;;;4.13;1.90;;;;;;;;;;7369036;19;20014;-75
2023/12/25 03:26:54;;;;;;;7.00;2.10;;;;;;;;;;7367432;19;20077;-75
2023/12/25 03:29:19;;;;;;;7.60;2.10;;;;;;;;;;7397570;19;20085;-75
2023/12/25 03:31:44;;;;;;;6.38;2.00;;;;;;;;;;7372928;19;20011;-75
2023/12/25 03:34:15;;;;;;;6.05;2.03;;;;;;;;;;7369888;19;20002;-75
2023/12/25 03:36:41;;;;;;;7.22;2.05;;;;;;;;;;7370107;19;20011;-75
2023/12/25 03:39:06;;;;;;;6.82;2.10;;;;;;;;;;7369858;19;20002;-76
2023/12/25 03:41:31;;;;;;;6.03;1.98;;;;;;;;;;7390964;19;20352;-75
2023/12/25 03:43:57;;;;;;;5.45;1.90;;;;;;;;;;7366215;19;20002;-75
2023/12/25 03:46:22;;;;;;;8.35;1.98;;;;;;;;;;7368643;19;20007;-75
2023/12/25 03:48:48;;;;;;;4.95;2.20;;;;;;;;;;7368048;19;20031;-75
2023/12/25 03:51:13;;;;;;;5.75;1.70;;;;;;;;;;7365646;19;20415;-75
2023/12/25 03:53:39;;;;;;;5.97;1.90;;;;;;;;;;7388919;19;20014;-76
2023/12/25 03:56:04;;;;;;;4.55;1.80;;;;;;;;;;7367235;19;20144;-75
2023/12/25 03:58:30;;;;;;;8.68;1.90;;;;;;;;;;7365791;19;20448;-75
2023/12/25 04:00:55;;;;;;;5.45;1.70;;;;;;;;;;7367887;19;20007;-76
2023/12/25 04:03:20;;;;;;;5.25;1.60;;;;;;;;;;7368906;19;20070;-75
2023/12/25 04:05:46;;;;;;;6.53;1.90;;;;;;;;;;7392717;19;20007;-76
2023/12/25 04:08:11;;;;;;;5.88;1.90;;;;;;;;;;7372366;19;20010;-75
2023/12/25 04:10:37;;;;;;;3.85;1.67;;;;;;;;;;7372542;19;20485;-75
2023/12/25 04:13:03;;;;;;;4.72;1.60;;;;;;;;;;7373609;19;20014;-75
2023/12/25 04:15:28;;;;;;;7.13;1.90;;;;;;;;;;7373014;19;20014;-75
2023/12/25 04:17:53;;;;;;;2.35;1.42;;;;;;;;;;7377176;19;20464;-75
2023/12/25 04:20:19;;;;;;;6.65;1.85;;;;;;;;;;7397774;19;20436;-75
2023/12/25 04:22:44;;;;;;;4.07;1.50;;;;;;;;;;7376581;19;20017;-76
2023/12/25 04:25:09;;;;;;;4.88;1.58;;;;;;;;;;7375115;19;20021;-76
2023/12/25 04:27:35;;;;;;;8.55;2.03;;;;;;;;;;7374174;19;20014;-76
2023/12/25 04:30:00;;;;;;;9.30;1.83;;;;;;;;;;7372861;19;20346;-76
2023/12/25 04:32:25;;;;;;;6.63;1.90;;;;;;;;;;7396507;19;20337;-76
2023/12/25 04:34:51;;;;;;;2.83;1.60;;;;;;;;;;7373909;19;20014;-77
2023/12/25 04:37:16;;;;;;;3.97;1.60;;;;;;;;;;7373460;19;20022;-76
2023/12/25 04:39:41;;;;;;;4.30;1.60;;;;;;;;;;7375963;19;20431;-76
2023/12/25 04:42:06;;;;;;;4.03;1.50;;;;;;;;;;7373413;19;20023;-77
2023/12/25 04:44:32;;;;;;;2.67;1.45;;;;;;;;;;7394720;19;20034;-76
2023/12/25 04:46:57;;;;;;;3.92;1.58;;;;;;;;;;7372779;19;20003;-76
2023/12/25 04:49:22;;;;;;;5.97;1.73;;;;;;;;;;7372975;19;19995;-76
2023/12/25 04:51:48;;;;;;;2.85;1.50;;;;;;;;;;7372711;19;20002;-76
2023/12/25 04:54:13;;;;;;;2.78;1.48;;;;;;;;;;7374251;19;20830;-76
2023/12/25 04:56:39;;;;;;;2.58;1.27;;;;;;;;;;7404766;19;20005;-76
2023/12/25 04:59:04;;;;;;;4.15;1.40;;;;;;;;;;7374980;19;20027;-77
2023/12/25 05:01:29;;;;;;;2.63;1.30;;;;;;;;;;7371844;19;20106;-76
2023/12/25 05:03:55;;;;;;;6.93;1.50;;;;;;;;;;7371584;19;20015;-76
2023/12/25 05:06:20;;;;;;;4.35;1.38;;;;;;;;;;7374826;19;20007;-77
2023/12/25 05:08:45;;;;;;;2.72;1.33;;;;;;;;;;7398563;19;20103;-75
2023/12/25 05:11:10;;;;;;;2.90;1.30;;;;;;;;;;7372945;19;20064;-76
2023/12/25 05:13:36;;;;;;;2.08;1.10;;;;;;;;;;7371690;19;20007;-75
2023/12/25 05:16:01;;;;;;;2.10;1.13;;;;;;;;;;7371625;19;20040;-75
2023/12/25 05:18:27;;;;;;;3.40;1.00;;;;;;;;;;7371069;19;20017;-75
2023/12/25 05:20:52;;;;;;;1.50;1.13;;;;;;;;;;7371733;19;20015;-75
2023/12/25 05:23:18;;;;;;;1.45;1.00;;;;;;;;;;7392822;19;20013;-75
2023/12/25 05:25:43;;;;;;;1.83;1.20;;;;;;;;;;7371567;19;20010;-75
2023/12/25 05:28:08;;;;;;;2.70;1.10;;;;;;;;;;7371061;19;20014;-75
2023/12/25 05:30:34;;;;;;;1.23;1.08;;;;;;;;;;7369395;19;20337;-74
2023/12/25 05:33:00;;;;;;;1.20;1.08;;;;;;;;;;7371008;19;20016;-74
2023/12/25 05:35:25;;;;;;;0.95;0.95;;;;;;;;;;7394759;19;20009;-75
2023/12/25 05:37:50;;;;;;;0.73;0.73;;;;;;;;;;7371292;19;20082;-76
2023/12/25 05:40:16;;;;;;;0.80;0.80;;;;;;;;;;7372856;19;20103;-75
2023/12/25 05:42:41;;;;;;;1.33;1.00;;;;;;;;;;7372680;19;20094;-75
2023/12/25 05:45:07;;;;;;;2.42;1.05;;;;;;;;;;7372621;19;20505;-76
2023/12/25 05:47:33;;;;;;;0.80;0.80;;;;;;;;;;7393255;19;20010;-75
2023/12/25 05:49:58;;;;;;;1.60;0.80;;;;;;;;;;7371239;19;20025;-75
2023/12/25 05:52:24;;;;;;;0.95;0.90;;;;;;;;;;7372009;19;20022;-75
2023/12/25 05:54:49;;;;;;;3.88;1.00;;;;;;;;;;7372517;19;20468;-75
2023/12/25 05:57:14;;;;;;;0.82;0.82;;;;;;;;;;7370635;19;20015;-75
2023/12/25 05:59:40;;;;;;;0.80;0.80;;;;;;;;;;7393311;19;20035;-75
2023/12/25 06:02:05;;;;;;;2.15;0.80;;;;;;;;;;7370739;19;20010;-74
2023/12/25 06:04:31;;;;;;;0.70;0.70;;;;;;;;;;7368343;19;20011;-74
2023/12/25 06:06:56;;;;;;;1.27;0.90;;;;;;;;;;7370407;19;20003;-75
2023/12/25 06:09:21;;;;;;;3.78;1.10;;;;;;;;;;7370911;19;20010;-75
2023/12/25 06:11:47;;;;;;;0.82;0.80;;;;;;;;;;7392621;19;20023;-75
2023/12/25 06:14:12;;;;;;;4.32;1.00;;;;;;;;;;7369166;19;20279;-74
2023/12/25 06:16:37;;;;;;;0.82;0.82;;;;;;;;;;7368259;19;20027;-74
2023/12/25 06:19:03;;;;;;;1.50;0.90;;;;;;;;;;7369575;19;20029;-74
2023/12/25 06:21:28;;;;;;;1.95;1.10;;;;;;;;;;7367269;19;20019;-74
2023/12/25 06:23:53;;;;;;;1.15;0.95;;;;;;;;;;7367215;19;20006;-74
2023/12/25 06:26:19;;;;;;;0.88;0.88;;;;;;;;;;7391350;19;20014;-75
2023/12/25 06:28:44;;;;;;;5.45;1.00;;;;;;;;;;7381236;19;20010;-77
2023/12/25 06:31:09;;;;;;;2.85;0.85;;;;;;;;;;7387046;19;20006;-76
2023/12/25 06:33:35;;;;;;;0.90;0.90;;;;;;;;;;7378498;19;20010;-78
2023/12/25 06:36:01;;;;;;;0.90;0.90;;;;;;;;;;7391541;19;20010;-78
2023/12/25 06:38:27;;;;;;;0.80;0.80;;;;;;;;;;7409547;19;19999;-78
2023/12/25 06:40:52;;;;;;;2.22;1.00;;;;;;;;;;7387967;19;20347;-79
2023/12/25 06:43:19;;;;;;;1.40;0.95;;;;;;;;;;7387052;19;20009;-79
2023/12/25 06:45:44;;;;;;;1.52;0.90;;;;;;;;;;7400873;19;20005;-79
2023/12/25 06:48:11;;;;;;;1.15;1.00;;;;;;;;;;7404387;19;19991;-80
2023/12/25 06:50:38;;;;;;;1.77;1.00;;;;;;;;;;7419726;19;20011;-81
2023/12/25 06:53:04;;;;;;;1.10;1.00;;;;;;;;;;7389059;19;20006;-79
2023/12/25 06:55:30;;;;;;;0.77;0.77;;;;;;;;;;7398167;19;20022;-79
2023/12/25 06:57:55;;;;;;;0.80;0.77;;;;;;;;;;7397764;19;20031;-80
2023/12/25 07:00:21;;;;;;;0.77;0.77;;;;;;;;;;7402077;19;20007;-81
2023/12/25 07:02:46;;;;;;;1.45;1.02;;;;;;;;;;7419818;19;20023;-81
2023/12/25 07:05:12;;;;;;;0.93;0.80;;;;;;;;;;7394540;19;20006;-81
2023/12/25 07:07:38;;;;;;;1.15;1.00;;;;;;;;;;7381498;19;20002;-81
2023/12/25 07:10:03;;;;;;;1.17;1.05;;;;;;;;;;7381546;19;20010;-82
2023/12/25 07:12:29;;;;;;;0.95;0.93;;;;;;;;;;7398050;19;20026;-81
2023/12/25 07:14:55;;;;;;;1.20;1.10;;;;;;;;;;7406291;19;20006;-81
2023/12/25 07:17:21;;;;;;;1.88;0.95;;;;;;;;;;7415663;19;20006;-81
2023/12/25 07:19:47;;;;;;;1.25;0.90;;;;;;;;;;7387165;19;20022;-81
2023/12/25 07:22:12;;;;;;;2.65;1.00;;;;;;;;;;7386273;19;20804;-82
2023/12/25 07:24:38;;;;;;;2.38;1.10;;;;;;;;;;7384376;19;20027;-81
2023/12/25 07:27:04;;;;;;;0.98;0.93;;;;;;;;;;7385363;19;20006;-81
2023/12/25 07:29:30;;;;;;;1.05;1.00;;;;;;;;;;7408303;19;20374;-81
2023/12/25 07:31:57;;;;;;;0.90;0.90;;;;;;;;;;7386931;19;20031;-81
2023/12/25 07:34:23;;;;;;;1.13;1.00;;;;;;;;;;7383929;19;20033;-81
2023/12/25 07:36:49;;;;;;;1.25;1.20;;;;;;;;;;7383911;19;20019;-82
2023/12/25 07:39:15;;;;;;;0.77;0.77;;;;;;;;;;7382794;19;20074;-80
2023/12/25 07:41:42;;;;;;;1.17;0.80;;;;;;;;;;7405991;19;20091;-81
2023/12/25 07:44:07;;;;;;;0.70;0.70;;;;;;;;;;7384872;19;20002;-81
2023/12/25 07:46:33;;;;;;;0.85;0.85;;;;;;;;;;7401165;19;20007;-82
2023/12/25 07:48:58;;;;;;;0.70;0.70;;;;;;;;;;7413560;19;20002;-82
2023/12/25 07:51:24;;;;;;;0.85;0.80;;;;;;;;;;7411767;19;19994;-81
2023/12/25 07:53:49;;;;;;;0.77;0.70;;;;;;;;;;7423640;19;19991;-83
2023/12/25 07:56:14;;;;;;;2.47;1.00;;;;;;;;;;7404336;19;20055;-80
2023/12/25 07:58:40;;;;;;;1.75;0.90;;;;;;;;;;7388464;19;20003;-82
2023/12/25 08:01:06;;;;;;;1.17;0.80;;;;;;;;;;7393382;19;20014;-81
2023/12/25 08:03:31;;;;;;;0.88;0.85;;;;;;;;;;7383614;19;20701;-81
2023/12/25 08:05:57;;;;;;;1.17;0.98;;;;;;;;;;7385307;19;20026;-81
2023/12/25 08:08:22;;;;;;;1.02;0.90;;;;;;;;;;7407510;19;19994;-82
2023/12/25 08:10:47;;;;;;;0.90;0.90;;;;;;;;;;7386771;19;20010;-81
2023/12/25 08:13:17;;;;;;;1.80;0.90;;;;;;;;;;7383932;19;19999;-80
2023/12/25 08:15:42;;;;;;;7.15;4.05;;;;;;;;;;7384908;19;20003;-80
2023/12/25 08:18:08;;;;;;;2.42;1.58;;;;;;;;;;7385013;19;20006;-82
2023/12/25 08:20:33;;;;;;;0.90;0.90;;;;;;;;;;7404300;19;20013;-82
2023/12/25 08:22:58;;;;;;;0.70;0.70;;;;;;;;;;7391109;19;20067;-81
2023/12/25 08:25:24;;;;;;;0.70;0.70;;;;;;;;;;7385028;19;20051;-79
2023/12/25 08:27:49;;;;;;;1.88;0.73;;;;;;;;;;7378454;19;20014;-79
2023/12/25 08:30:15;;;;;;;0.80;0.80;;;;;;;;;;7376654;19;20021;-79
2023/12/25 08:32:40;;;;;;;3.60;1.10;;;;;;;;;;7404625;19;20331;-80
2023/12/25 08:35:05;;;;;;;1.33;0.77;;;;;;;;;;7383386;19;20925;-81
2023/12/25 08:37:31;;;;;;;1.55;0.90;;;;;;;;;;7379734;19;19998;-79
2023/12/25 08:39:56;;;;;;;1.17;1.00;;;;;;;;;;7374296;19;20049;-78
2023/12/25 08:42:21;;;;;;;1.95;0.90;;;;;;;;;;7372654;19;20018;-78
2023/12/25 08:44:47;;;;;;;1.38;0.93;;;;;;;;;;7395817;19;20027;-77
2023/12/25 08:47:14;;;;;;;0.90;0.90;;;;;;;;;;7377199;19;20048;-78
2023/12/25 08:49:40;;;;;;;0.98;0.98;;;;;;;;;;7387406;19;20330;-78
2023/12/25 08:52:05;;;;;;;1.30;0.80;;;;;;;;;;7375977;19;20074;-77
2023/12/25 08:54:30;;;;;;;0.70;0.70;;;;;;;;;;7371136;19;20539;-77
2023/12/25 08:56:58;;;;;;;0.70;0.70;;;;;;;;;;7371715;19;20002;-77
2023/12/25 08:59:24;;;;;;;3.85;2.15;;;;;;;;;;7392179;19;20010;-77
2023/12/25 09:01:50;;;;;;;3.80;2.28;;;;;;;;;;7372415;19;20017;-78
2023/12/25 09:04:15;;;;;;;0.70;0.70;;;;;;;;;;7368279;19;20014;-75
2023/12/25 09:06:41;;;;;;;0.80;0.80;;;;;;;;;;7377722;19;20017;-78
2023/12/25 09:09:06;;;;;;;0.90;0.88;;;;;;;;;;7387245;19;20025;-79
2023/12/25 09:11:32;;;;;;;0.80;0.70;;;;;;;;;;7406878;19;20031;-79
2023/12/25 09:13:57;;;;;;;1.23;0.80;;;;;;;;;;7386076;19;20017;-79
2023/12/25 09:16:22;;;;;;;0.68;0.68;;;;;;;;;;7384180;19;20011;-77
2023/12/25 09:18:48;;;;;;;0.70;0.70;;;;;;;;;;7379004;19;20002;-77
2023/12/25 09:21:13;;;;;;;0.70;0.70;;;;;;;;;;7377129;19;20066;-78
2023/12/25 09:23:39;;;;;;;2.47;1.05;;;;;;;;;;7392901;19;20002;-77
2023/12/25 09:26:04;;;;;;;1.00;1.00;;;;;;;;;;7370310;19;20018;-77
2023/12/25 09:28:29;;;;;;;1.02;1.02;;;;;;;;;;7366255;19;20079;-77
2023/12/25 09:30:55;;;;;;;0.80;0.80;;;;;;;;;;7383780;19;20117;-76
2023/12/25 09:33:20;;;;;;;1.10;0.90;;;;;;;;;;7392941;19;20033;-78
2023/12/25 09:35:45;;;;;;;1.10;1.10;;;;;;;;;;7406252;19;20098;-77
2023/12/25 09:38:11;;;;;;;0.90;0.90;;;;;;;;;;7373763;19;20007;-77
2023/12/25 09:40:36;;;;;;;0.70;0.70;;;;;;;;;;7383921;19;20031;-79
2023/12/25 09:43:01;;;;;;;5.25;2.97;;;;;;;;;;7391394;19;20006;-79
2023/12/25 09:45:37;;;;;;;0.63;0.63;;;;;;;;;;7396731;19;20006;-80
2023/12/25 09:48:02;;;;;;;0.70;0.70;;;;;;;;;;7388091;19;20017;-78
2023/12/25 09:50:30;;;;;;;0.85;0.85;;;;;;;;;;7410449;19;20007;-77
2023/12/25 09:52:56;;;;;;;0.80;0.80;;;;;;;;;;7382910;19;20680;-78
2023/12/25 09:55:21;;;;;;;1.02;1.00;;;;;;;;;;7367346;19;20002;-80
2023/12/25 09:57:47;;;;;;;1.05;1.05;;;;;;;;;;7376716;19;20481;-77
2023/12/25 10:00:13;;;;;;;1.80;1.40;;;;;;;;;;7368920;19;20010;-75
2023/12/25 10:02:44;;;;;;;1.45;1.00;;;;;;;;;;7389194;19;19994;-75
2023/12/25 10:05:09;;;;;;;0.75;0.75;;;;;;;;;;7364726;19;20082;-75
2023/12/25 10:07:35;;;;;;;0.80;0.80;;;;;;;;;;7363729;19;20014;-74
2023/12/25 10:10:00;;;;;;;0.93;0.93;;;;;;;;;;7368498;19;20077;-76
2023/12/25 10:12:26;;;;;;;0.68;0.68;;;;;;;;;;7366116;19;20419;-77
2023/12/25 10:14:51;;;;;;;0.85;0.85;;;;;;;;;;7368021;19;20030;-77
2023/12/25 10:17:17;;;;;;;0.65;0.65;;;;;;;;;;7390750;19;20054;-75
2023/12/25 10:19:52;;;;;;;0.68;0.68;;;;;;;;;;7367993;19;20022;-76
2023/12/25 10:22:32;;;;;;;0.80;0.80;;;;;;;;;;7363140;19;20002;-76
2023/12/25 10:25:05;;;;;;;2.40;1.73;;;;;;;;;;7365900;19;20082;-77
2023/12/25 10:27:33;;;;;;;1.35;1.25;;;;;;;;;;7366603;19;20011;-77
2023/12/25 10:30:00;;;;;;;1.65;0.90;;;;;;;;;;7368656;19;20014;-77
2023/12/25 10:32:25;;;;;;;0.80;0.80;;;;;;;;;;7387183;19;20486;-78
2023/12/25 10:34:51;;;;;;;0.70;0.70;;;;;;;;;;7366270;19;20003;-77
2023/12/25 10:37:16;;;;;;;1.15;1.00;;;;;;;;;;7364066;19;20006;-76
2023/12/25 10:39:41;;;;;;;1.40;1.10;;;;;;;;;;7367791;19;19998;-76
2023/12/25 10:42:10;;;;;;;1.27;0.75;;;;;;;;;;7365269;19;20023;-76
2023/12/25 10:44:36;;;;;;;2.28;1.90;;;;;;;;;;7388732;19;19999;-77
2023/12/25 10:47:04;;;;;;;11.00;6.65;;;;;;;;;;7366761;19;20002;-75
2023/12/25 10:49:31;;;;;;;0.98;0.90;;;;;;;;;;7364930;19;20014;-75
2023/12/25 10:51:59;;;;;;;0.90;0.90;;;;;;;;;;7374847;19;20010;-76
2023/12/25 10:54:25;;;;;;;0.90;0.90;;;;;;;;;;7367523;19;19999;-76
2023/12/25 10:56:50;;;;;;;1.20;0.70;;;;;;;;;;7371803;19;19999;-76
2023/12/25 10:59:30;;;;;;;1.27;0.90;;;;;;;;;;7390717;19;20011;-77
2023/12/25 11:01:57;;;;;;;0.88;0.88;;;;;;;;;;7370503;19;20388;-77
2023/12/25 11:04:24;;;;;;;0.70;0.70;;;;;;;;;;7366847;19;20018;-76
2023/12/25 11:06:49;;;;;;;0.70;0.70;;;;;;;;;;7364323;19;19991;-74
2023/12/25 11:09:17;;;;;;;0.60;0.60;;;;;;;;;;7368219;19;20014;-75
2023/12/25 11:11:44;;;;;;;0.70;0.70;;;;;;;;;;7397051;19;19995;-77
2023/12/25 11:14:10;;;;;;;1.02;0.80;;;;;;;;;;7374426;19;20002;-78
2023/12/25 11:16:36;;;;;;;0.60;0.60;;;;;;;;;;7376245;19;20014;-78
2023/12/25 11:19:03;;;;;;;0.82;0.80;;;;;;;;;;7376424;19;20003;-77
2023/12/25 11:21:30;;;;;;;0.68;0.60;;;;;;;;;;7375713;19;20009;-77
2023/12/25 11:23:56;;;;;;;0.80;0.80;;;;;;;;;;7374151;19;19999;-77
2023/12/25 11:26:25;;;;;;;0.77;0.77;;;;;;;;;;7396828;19;20006;-77
2023/12/25 11:29:00;;;;;;;0.70;0.70;;;;;;;;;;7375691;19;20016;-78
2023/12/25 11:31:28;;;;;;;1.02;0.82;;;;;;;;;;7383538;19;20034;-78
2023/12/25 11:33:53;;;;;;;0.70;0.70;;;;;;;;;;7380475;19;20086;-77
2023/12/25 11:36:21;;;;;;;0.60;0.60;;;;;;;;;;7383471;19;20017;-77
2023/12/25 11:38:56;;;;;;;0.70;0.70;;;;;;;;;;7412185;19;20008;-78
2023/12/25 11:41:24;;;;;;;0.70;0.70;;;;;;;;;;7386001;19;20019;-78
2023/12/25 11:43:50;;;;;;;1.35;0.90;;;;;;;;;;7376288;19;19998;-78
2023/12/25 11:46:19;;;;;;;0.70;0.70;;;;;;;;;;7375130;19;20015;-78
2023/12/25 11:48:48;;;;;;;0.70;0.70;;;;;;;;;;7385009;19;19999;-76
2023/12/25 11:51:21;;;;;;;0.73;0.73;;;;;;;;;;7382014;19;20013;-77
2023/12/25 11:53:48;;;;;;;0.65;0.65;;;;;;;;;;7394658;19;20006;-76
2023/12/25 11:56:16;;;;;;;0.70;0.70;;;;;;;;;;7373589;19;20022;-76
2023/12/25 11:58:42;;;;;;;0.80;0.80;;;;;;;;;;7379512;19;20014;-76
2023/12/25 12:01:07;;;;;;;0.80;0.80;;;;;;;;;;7374007;19;20006;-77
2023/12/25 12:03:32;;;;;;;0.80;0.80;;;;;;;;;;7375309;19;20041;-77
2023/12/25 12:05:58;;;;;;;0.70;0.70;;;;;;;;;;7379138;19;20005;-77
2023/12/25 12:08:26;;;;;;;0.95;0.85;;;;;;;;;;7397050;19;20002;-76
2023/12/25 12:10:52;;;;;;;1.13;0.80;;;;;;;;;;7371328;19;20006;-77
2023/12/25 12:13:17;;;;;;;0.95;0.90;;;;;;;;;;7369481;19;20036;-75
2023/12/25 12:15:43;;;;;;;1.02;0.98;;;;;;;;;;7375695;19;20031;-76
2023/12/25 12:18:08;;;;;;;0.88;0.88;;;;;;;;;;7376009;19;20011;-76
2023/12/25 12:20:34;;;;;;;0.80;0.80;;;;;;;;;;7395227;19;19999;-76
2023/12/25 12:23:00;;;;;;;0.70;0.70;;;;;;;;;;7366905;19;20017;-75
2023/12/25 12:25:28;;;;;;;1.10;0.73;;;;;;;;;;7367728;19;20110;-75
2023/12/25 12:27:58;;;;;;;0.75;0.75;;;;;;;;;;7366656;19;20014;-77
2023/12/25 12:30:23;;;;;;;0.90;0.70;;;;;;;;;;7371499;19;20123;-76
2023/12/25 12:32:50;;;;;;;0.90;0.75;;;;;;;;;;7399803;19;20006;-76
2023/12/25 12:35:15;;;;;;;1.20;0.60;;;;;;;;;;7378862;19;20015;-77
2023/12/25 12:37:42;;;;;;;0.68;0.68;;;;;;;;;;7381513;19;20009;-75
2023/12/25 12:40:08;;;;;;;0.50;0.50;;;;;;;;;;7378955;19;20010;-77
2023/12/25 12:42:34;;;;;;;0.90;0.90;;;;;;;;;;7386202;19;19998;-77
2023/12/25 12:45:01;;;;;;;0.75;0.70;;;;;;;;;;7385705;19;20031;-76
2023/12/25 12:47:27;;;;;;;1.10;1.00;;;;;;;;;;7405581;19;20034;-77
2023/12/25 12:49:52;;;;;;;0.70;0.70;;;;;;;;;;7381131;19;20622;-77
2023/12/25 12:52:18;;;;;;;0.73;0.73;;;;;;;;;;7385902;19;20011;-77
2023/12/25 12:54:44;;;;;;;0.65;0.65;;;;;;;;;;7384789;19;20031;-76
2023/12/25 12:57:09;;;;;;;0.90;0.90;;;;;;;;;;7385438;19;20612;-76
2023/12/25 12:59:34;;;;;;;0.77;0.77;;;;;;;;;;7406590;19;20342;-76
2023/12/25 13:02:00;;;;;;;1.15;0.90;;;;;;;;;;7380654;19;20040;-76
2023/12/25 13:04:25;;;;;;;0.82;0.80;;;;;;;;;;7379439;19;20013;-75
2023/12/25 13:06:51;;;;;;;0.90;0.90;;;;;;;;;;7388104;19;20361;-76
2023/12/25 13:09:17;;;;;;;0.60;0.60;;;;;;;;;;7381488;19;20098;-75
2023/12/25 13:11:43;;;;;;;0.63;0.63;;;;;;;;;;7404831;19;19994;-76
2023/12/25 13:14:08;;;;;;;0.80;0.80;;;;;;;;;;7378041;19;20516;-75
2023/12/25 13:16:34;;;;;;;0.70;0.70;;;;;;;;;;7377409;19;19999;-76
2023/12/25 13:18:59;;;;;;;0.73;0.73;;;;;;;;;;7380793;19;20003;-76
2023/12/25 13:21:24;;;;;;;0.77;0.77;;;;;;;;;;7380210;19;20042;-76
2023/12/25 13:23:50;;;;;;;0.70;0.70;;;;;;;;;;7391153;19;20007;-76
2023/12/25 13:26:15;;;;;;;1.02;0.90;;;;;;;;;;7393595;19;20066;-75
2023/12/25 13:28:41;;;;;;;0.98;0.88;;;;;;;;;;7378881;19;20044;-75
2023/12/25 13:31:07;;;;;;;0.90;0.90;;;;;;;;;;7380965;19;20033;-75
2023/12/25 13:33:32;;;;;;;1.08;1.00;;;;;;;;;;7380297;19;20066;-75
2023/12/25 13:35:57;;;;;;;0.70;0.70;;;;;;;;;;7381764;19;20013;-75
2023/12/25 13:38:23;;;;;;;1.65;0.90;;;;;;;;;;7399831;19;20096;-75
2023/12/25 13:40:50;;;;;;;1.15;1.00;;;;;;;;;;7380038;19;19995;-75
2023/12/25 13:43:15;;;;;;;2.63;1.17;;;;;;;;;;7377261;19;20058;-75
2023/12/25 13:45:41;;;;;;;3.53;1.40;;;;;;;;;;7381144;19;20003;-76
2023/12/25 13:48:06;;;;;;;1.48;1.00;;;;;;;;;;7378056;19;20008;-75
2023/12/25 13:50:32;;;;;;;1.83;1.20;;;;;;;;;;7399153;19;20078;-76
2023/12/25 13:52:57;;;;;;;1.23;1.20;;;;;;;;;;7378313;19;20077;-75
2023/12/25 13:55:22;;;;;;;2.13;1.25;;;;;;;;;;7380128;19;20103;-76
2023/12/25 13:57:48;;;;;;;1.05;1.00;;;;;;;;;;7379231;19;20062;-76
2023/12/25 14:00:14;;;;;;;1.25;1.10;;;;;;;;;;7381816;19;20005;-76
2023/12/25 14:02:40;;;;;;;1.13;1.00;;;;;;;;;;7404832;19;20027;-75
2023/12/25 14:05:06;;;;;;;0.80;0.80;;;;;;;;;;7379533;19;20010;-75
2023/12/25 14:07:32;;;;;;;1.55;1.00;;;;;;;;;;7386482;19;20524;-75
2023/12/25 14:09:57;;;;;;;1.95;1.23;;;;;;;;;;7382899;19;20006;-76
2023/12/25 14:12:23;;;;;;;1.48;1.20;;;;;;;;;;7376636;19;20010;-76
2023/12/25 14:14:48;;;;;;;2.63;1.00;;;;;;;;;;7398079;19;19999;-76
2023/12/25 14:17:14;;;;;;;1.27;1.17;;;;;;;;;;7374104;19;20012;-76
2023/12/25 14:19:39;;;;;;;1.20;1.10;;;;;;;;;;7378668;19;20027;-76
2023/12/25 14:22:04;;;;;;;1.75;0.90;;;;;;;;;;7375857;19;20035;-76
2023/12/25 14:24:35;;;;;;;1.05;0.95;;;;;;;;;;7374516;19;20023;-75
2023/12/25 14:27:01;;;;;;;1.75;1.00;;;;;;;;;;7375874;19;19999;-76
2023/12/25 14:29:26;;;;;;;1.20;1.10;;;;;;;;;;7399123;19;20023;-76
2023/12/25 14:31:52;;;;;;;1.00;1.00;;;;;;;;;;7378485;19;20370;-76
2023/12/25 14:34:19;;;;;;;1.40;1.05;;;;;;;;;;7378340;19;20017;-76